Time;durP1;ratioP1;P1;durP2;ratioP2;P2;SDS_P1;SDS_P2;PMS_P1;PMS_P2;Temp;Humidity;BMP_temperature;BMP_pressure;BME280_temperature;BME280_humidity;BME280_pressure;Samples;Min_cycle;Max_cycle;Signal;HPM_P1;HPM_P2
2024/01/25 00:00:20;;;;;;;1.13;0.73;;;;;;;30.64;21.35;100961.03;7390953;19;20018;-88
2024/01/25 00:02:46;;;;;;;0.50;0.50;;;;;;;30.49;21.05;100961.94;7395106;19;20342;-88
2024/01/25 00:05:12;;;;;;;3.25;1.23;;;;;;;30.29;21.39;100954.44;7392517;19;20030;-88
2024/01/25 00:07:46;;;;;;;5.57;1.00;;;;;;;30.31;21.57;100974.00;7390489;19;20106;-88
2024/01/25 00:10:14;;;;;;;1.92;1.58;;;;;;;29.91;21.52;100976.94;7390565;19;20015;-88
2024/01/25 00:12:41;;;;;;;1.55;0.40;;;;;;;30.28;21.36;100966.50;7392534;19;20018;-88
2024/01/25 00:15:09;;;;;;;1.00;0.93;;;;;;;30.40;21.13;100958.97;7394839;19;20022;-88
2024/01/25 00:17:35;;;;;;;1.55;0.93;;;;;;;30.17;21.50;100946.91;7390912;19;20011;-88
2024/01/25 00:20:01;;;;;;;1.88;1.75;;;;;;;30.08;21.27;100933.16;7391358;19;20015;-88
2024/01/25 00:22:27;;;;;;;2.08;1.42;;;;;;;30.11;21.53;100934.84;7391314;19;20022;-88
2024/01/25 00:24:54;;;;;;;4.13;2.22;;;;;;;29.89;21.32;100940.19;7390797;19;20021;-88
2024/01/25 00:27:20;;;;;;;3.85;1.42;;;;;;;30.08;21.81;100941.78;7393292;19;20055;-88
2024/01/25 00:29:46;;;;;;;5.43;1.85;;;;;;;30.14;21.49;100948.06;7391059;19;20014;-88
2024/01/25 00:32:12;;;;;;;1.30;1.23;;;;;;;29.95;21.68;100955.09;7390632;19;20483;-88
2024/01/25 00:34:38;;;;;;;12.32;1.83;;;;;;;29.88;21.43;100950.19;7388623;19;20014;-87
2024/01/25 00:37:05;;;;;;;0.38;0.38;;;;;;;29.76;21.48;100951.97;7390365;19;20010;-87
2024/01/25 00:39:31;;;;;;;1.40;1.30;;;;;;;29.78;21.22;100943.53;7390796;19;20024;-88
2024/01/25 00:42:07;;;;;;;1.05;0.65;;;;;;;29.74;21.42;100933.78;7392027;19;20018;-88
2024/01/25 00:44:34;;;;;;;2.90;1.25;;;;;;;29.76;21.49;100940.47;7392981;19;20024;-88
2024/01/25 00:47:00;;;;;;;0.75;0.52;;;;;;;29.75;21.60;100953.31;7389247;19;20007;-87
2024/01/25 00:49:26;;;;;;;0.50;0.50;;;;;;;29.65;21.63;100966.75;7388160;19;20019;-87
2024/01/25 00:52:02;;;;;;;3.05;0.50;;;;;;;29.65;21.82;100961.00;7390204;19;20010;-88
2024/01/25 00:54:29;;;;;;;7.82;1.73;;;;;;;29.41;21.60;100958.84;7388955;19;20018;-88
2024/01/25 00:56:55;;;;;;;0.38;0.38;;;;;;;29.50;21.74;100961.09;7393188;19;20451;-88
2024/01/25 00:59:21;;;;;;;0.63;0.63;;;;;;;29.50;21.59;100958.22;7392318;19;20031;-87
2024/01/25 01:01:48;;;;;;;0.20;0.20;;;;;;;29.28;21.59;100939.03;7393116;19;20035;-87
2024/01/25 01:04:17;;;;;;;1.17;0.85;;;;;;;29.30;22.00;100929.81;7391523;19;20127;-88
2024/01/25 01:06:44;;;;;;;6.75;2.15;;;;;;;29.37;21.77;100924.03;7390209;19;20018;-87
2024/01/25 01:09:10;;;;;;;0.55;0.55;;;;;;;29.41;22.08;100930.13;7391950;19;20011;-88
2024/01/25 01:11:36;;;;;;;6.68;2.05;;;;;;;29.49;22.12;100918.63;7389768;19;20014;-88
2024/01/25 01:14:02;;;;;;;5.07;1.75;;;;;;;29.55;22.10;100922.00;7388781;19;20019;-87
2024/01/25 01:16:32;;;;;;;0.60;0.60;;;;;;;29.63;22.20;100923.50;7389036;19;20394;-87
2024/01/25 01:19:05;;;;;;;12.75;1.15;;;;;;;29.58;21.90;100918.75;7390192;19;20018;-87
2024/01/25 01:21:33;;;;;;;10.55;0.95;;;;;;;29.40;22.18;100919.22;7391128;19;20022;-87
2024/01/25 01:23:59;;;;;;;1.55;1.45;;;;;;;29.42;21.93;100908.69;7390177;19;20015;-87
2024/01/25 01:26:25;;;;;;;0.43;0.43;;;;;;;29.45;22.21;100901.03;7391501;19;20022;-87
2024/01/25 01:28:51;;;;;;;3.20;2.25;;;;;;;29.31;22.00;100888.28;7387020;19;20014;-87
2024/01/25 01:31:17;;;;;;;0.10;0.10;;;;;;;29.55;21.64;100865.38;7387249;19;20049;-87
2024/01/25 01:33:43;;;;;;;5.22;1.40;;;;;;;29.36;22.36;100870.84;7386723;19;20025;-87
2024/01/25 01:36:09;;;;;;;0.17;0.10;;;;;;;29.43;22.58;100867.19;7388445;19;20033;-87
2024/01/25 01:38:36;;;;;;;1.67;1.58;;;;;;;29.56;21.92;100858.25;7391121;19;20035;-87
2024/01/25 01:41:02;;;;;;;1.42;1.33;;;;;;;29.55;22.21;100858.84;7392407;19;20039;-87
2024/01/25 01:43:28;;;;;;;2.28;1.80;;;;;;;29.55;22.41;100865.38;7389020;19;20018;-87
2024/01/25 01:46:02;;;;;;;13.15;2.10;;;;;;;29.43;22.34;100870.06;7386218;19;20015;-87
2024/01/25 01:48:28;;;;;;;1.88;1.65;;;;;;;29.38;22.03;100868.16;7394439;19;20473;-88
2024/01/25 01:50:54;;;;;;;1.27;0.50;;;;;;;29.35;21.77;100880.78;7395729;19;20018;-88
2024/01/25 01:53:21;;;;;;;0.80;0.80;;;;;;;29.33;21.95;100877.75;7389405;19;20011;-88
2024/01/25 01:55:47;;;;;;;27.80;1.80;;;;;;;29.34;21.84;100861.28;7390271;19;20014;-88
2024/01/25 01:58:13;;;;;;;0.75;0.68;;;;;;;29.47;21.86;100847.44;7393442;19;20601;-88
2024/01/25 02:00:42;;;;;;;6.82;2.47;;;;;;;29.20;22.32;100852.19;7389864;19;20007;-88
2024/01/25 02:03:08;;;;;;;2.78;0.88;;;;;;;29.00;22.39;100865.47;7389599;19;20410;-87
2024/01/25 02:05:35;;;;;;;0.55;0.55;;;;;;;29.09;22.36;100858.34;7386684;19;20018;-87
2024/01/25 02:08:01;;;;;;;0.77;0.70;;;;;;;29.20;22.18;100857.94;7391891;19;20010;-87
2024/01/25 02:10:27;;;;;;;7.03;2.42;;;;;;;29.32;22.09;100850.41;7394796;19;20006;-87
2024/01/25 02:12:53;;;;;;;0.70;0.70;;;;;;;29.49;22.26;100844.75;7394661;19;20018;-87
2024/01/25 02:15:19;;;;;;;4.55;1.38;;;;;;;29.54;22.31;100828.63;7392539;19;20018;-87
2024/01/25 02:17:46;;;;;;;2.00;1.90;;;;;;;29.61;22.34;100834.31;7399091;19;20018;-87
2024/01/25 02:20:12;;;;;;;1.45;1.02;;;;;;;29.51;22.30;100827.69;7397657;19;20018;-87
2024/01/25 02:22:38;;;;;;;0.60;0.60;;;;;;;29.48;22.24;100808.75;7400224;19;20043;-87
2024/01/25 02:25:05;;;;;;;0.57;0.57;;;;;;;29.49;22.56;100804.56;7394933;19;20472;-87
2024/01/25 02:27:31;;;;;;;19.23;1.25;;;;;;;29.60;22.34;100804.09;7395636;19;20002;-87
2024/01/25 02:29:57;;;;;;;0.65;0.65;;;;;;;29.72;21.88;100792.88;7392332;19;20070;-87
2024/01/25 02:32:23;;;;;;;4.03;0.77;;;;;;;29.66;21.99;100787.38;7393075;19;20057;-88
2024/01/25 02:34:49;;;;;;;0.70;0.68;;;;;;;29.70;22.51;100779.09;7396078;19;20014;-87
2024/01/25 02:37:15;;;;;;;0.47;0.47;;;;;;;29.72;22.07;100776.41;7396224;19;20025;-88
2024/01/25 02:39:41;;;;;;;2.28;1.23;;;;;;;29.58;22.60;100777.31;7395988;19;20014;-88
2024/01/25 02:42:07;;;;;;;4.15;1.75;;;;;;;29.53;22.43;100781.94;7394792;19;20026;-87
2024/01/25 02:44:33;;;;;;;1.45;1.35;;;;;;;29.40;22.46;100776.50;7393270;19;20078;-87
2024/01/25 02:47:01;;;;;;;5.97;0.38;;;;;;;29.37;22.51;100774.78;7395615;19;20035;-87
2024/01/25 02:49:27;;;;;;;9.23;1.25;;;;;;;29.41;22.28;100762.91;7394587;19;20401;-87
2024/01/25 02:51:53;;;;;;;3.63;1.02;;;;;;;29.70;22.24;100758.22;7392981;19;20023;-88
2024/01/25 02:54:19;;;;;;;1.00;0.93;;;;;;;29.56;22.72;100763.50;7396450;19;20014;-86
2024/01/25 02:56:45;;;;;;;1.35;1.08;;;;;;;29.53;22.16;100758.19;7397195;19;20019;-87
2024/01/25 02:59:11;;;;;;;0.82;0.82;;;;;;;29.64;22.44;100763.47;7395186;19;20073;-87
2024/01/25 03:01:41;;;;;;;1.95;1.50;;;;;;;29.54;22.67;100754.72;7395979;19;20078;-87
2024/01/25 03:04:08;;;;;;;0.65;0.52;;;;;;;29.82;22.45;100745.69;7395482;19;20060;-87
2024/01/25 03:06:34;;;;;;;7.68;2.05;;;;;;;30.07;22.02;100753.47;7392460;19;20014;-87
2024/01/25 03:09:00;;;;;;;1.25;1.13;;;;;;;30.08;21.96;100758.66;7392315;19;20082;-87
2024/01/25 03:11:26;;;;;;;3.95;0.90;;;;;;;30.17;21.83;100757.22;7391811;19;20024;-87
2024/01/25 03:13:52;;;;;;;2.65;0.95;;;;;;;30.29;22.27;100752.47;7392011;19;20015;-87
2024/01/25 03:16:19;;;;;;;0.63;0.63;;;;;;;30.73;21.94;100754.03;7393676;19;20030;-88
2024/01/25 03:18:45;;;;;;;0.95;0.95;;;;;;;30.87;21.90;100753.66;7393953;19;20031;-87
2024/01/25 03:21:11;;;;;;;0.30;0.30;;;;;;;30.94;21.81;100767.97;7393517;19;20010;-87
2024/01/25 03:23:38;;;;;;;2.33;1.40;;;;;;;30.98;21.88;100759.66;7393977;19;20019;-88
2024/01/25 03:26:04;;;;;;;0.55;0.55;;;;;;;31.09;21.98;100759.09;7395099;19;20022;-87
2024/01/25 03:28:31;;;;;;;2.92;0.35;;;;;;;31.10;21.49;100757.72;7398144;19;20557;-87
2024/01/25 03:30:57;;;;;;;4.22;1.88;;;;;;;31.11;21.46;100756.38;7393857;19;20018;-87
2024/01/25 03:33:25;;;;;;;2.28;1.20;;;;;;;31.87;21.67;100755.91;7393794;19;20026;-87
2024/01/25 03:35:51;;;;;;;0.32;0.32;;;;;;;32.08;21.22;100747.44;7393817;19;20015;-86
2024/01/25 03:38:17;;;;;;;0.45;0.45;;;;;;;32.29;21.01;100735.31;7396191;19;20006;-87
2024/01/25 03:40:44;;;;;;;1.00;0.93;;;;;;;32.25;21.06;100726.34;7395830;19;20370;-87
2024/01/25 03:43:10;;;;;;;2.05;0.88;;;;;;;32.38;20.78;100717.22;7392943;19;20022;-87
2024/01/25 03:45:36;;;;;;;2.75;0.77;;;;;;;32.20;21.28;100712.25;7390987;19;20017;-87
2024/01/25 03:48:03;;;;;;;1.42;1.33;;;;;;;32.32;21.20;100696.59;7393748;19;20477;-87
2024/01/25 03:50:29;;;;;;;2.20;0.85;;;;;;;33.06;20.84;100692.66;7390467;19;20006;-87
2024/01/25 03:52:55;;;;;;;0.98;0.68;;;;;;;33.28;20.57;100694.22;7390545;19;20011;-87
2024/01/25 03:55:21;;;;;;;10.35;0.93;;;;;;;33.38;20.65;100697.03;7390972;19;20006;-88
2024/01/25 03:57:47;;;;;;;2.90;1.65;;;;;;;33.73;20.40;100683.63;7395225;19;20014;-87
2024/01/25 04:00:13;;;;;;;0.98;0.98;;;;;;;33.90;20.36;100686.22;7393377;19;20022;-87
2024/01/25 04:02:39;;;;;;;0.73;0.73;;;;;;;33.93;20.30;100684.22;7393843;19;20088;-88
2024/01/25 04:05:06;;;;;;;0.88;0.88;;;;;;;33.96;20.05;100689.50;7391555;19;20026;-87
2024/01/25 04:07:32;;;;;;;0.63;0.63;;;;;;;33.97;20.33;100691.03;7395109;19;20366;-87
2024/01/25 04:09:58;;;;;;;6.43;1.60;;;;;;;34.00;20.25;100689.03;7393180;19;20019;-87
2024/01/25 04:12:25;;;;;;;0.40;0.40;;;;;;;33.92;20.17;100695.03;7390448;19;20024;-87
2024/01/25 04:14:51;;;;;;;1.23;0.82;;;;;;;34.13;20.11;100692.13;7390239;19;20014;-87
2024/01/25 04:17:17;;;;;;;3.85;2.15;;;;;;;34.13;20.11;100691.38;7392231;19;20014;-87
2024/01/25 04:19:43;;;;;;;6.90;0.75;;;;;;;34.18;20.23;100681.59;7391385;19;20033;-87
2024/01/25 04:22:09;;;;;;;3.03;1.45;;;;;;;34.22;20.19;100659.47;7393589;19;20034;-88
2024/01/25 04:24:35;;;;;;;0.40;0.40;;;;;;;34.19;19.85;100654.19;7390683;19;20046;-87
2024/01/25 04:27:01;;;;;;;0.43;0.43;;;;;;;33.82;19.98;100656.78;7392804;19;20445;-87
2024/01/25 04:29:27;;;;;;;1.35;1.25;;;;;;;33.81;20.38;100649.47;7393967;19;20018;-88
2024/01/25 04:31:53;;;;;;;4.22;0.77;;;;;;;33.86;20.38;100644.72;7388218;19;20021;-87
2024/01/25 04:34:19;;;;;;;0.70;0.70;;;;;;;34.16;19.94;100633.06;7393323;19;20020;-88
2024/01/25 04:36:45;;;;;;;0.98;0.85;;;;;;;34.05;20.51;100638.78;7392424;19;20386;-88
2024/01/25 04:39:12;;;;;;;1.00;1.00;;;;;;;33.82;20.53;100633.66;7392478;19;20014;-87
2024/01/25 04:41:38;;;;;;;4.88;1.90;;;;;;;34.57;20.16;100647.25;7390772;19;20072;-88
2024/01/25 04:44:04;;;;;;;1.30;0.68;;;;;;;34.72;20.48;100635.94;7393015;19;20035;-87
2024/01/25 04:46:36;;;;;;;2.13;0.63;;;;;;;34.67;20.65;100636.34;7390506;19;20022;-88
2024/01/25 04:49:03;;;;;;;1.48;0.77;;;;;;;34.79;20.47;100625.50;7389872;19;20464;-87
2024/01/25 04:51:29;;;;;;;0.30;0.30;;;;;;;34.78;20.68;100636.31;7390085;19;20018;-88
2024/01/25 04:53:55;;;;;;;0.47;0.20;;;;;;;34.73;20.62;100636.72;7389747;19;20352;-88
2024/01/25 04:56:21;;;;;;;3.80;0.65;;;;;;;34.59;21.33;100627.16;7393727;19;20022;-88
2024/01/25 04:58:47;;;;;;;3.40;0.90;;;;;;;34.69;21.13;100633.56;7392228;19;20026;-87
2024/01/25 05:01:13;;;;;;;3.05;0.98;;;;;;;34.16;21.47;100640.97;7389763;19;20029;-87
2024/01/25 05:03:39;;;;;;;0.40;0.40;;;;;;;34.09;21.60;100645.59;7390967;19;20022;-87
2024/01/25 05:06:06;;;;;;;0.52;0.50;;;;;;;34.34;21.60;100624.81;7389686;19;20342;-88
2024/01/25 05:08:32;;;;;;;0.30;0.30;;;;;;;34.59;21.54;100618.47;7395394;19;20043;-87
2024/01/25 05:10:58;;;;;;;16.92;3.05;;;;;;;34.47;21.72;100621.31;7390781;19;20030;-87
2024/01/25 05:13:24;;;;;;;17.77;1.90;;;;;;;33.74;22.39;100615.78;7393496;19;20022;-88
2024/01/25 05:15:50;;;;;;;2.83;1.27;;;;;;;33.66;22.17;100603.66;7394781;19;20026;-87
2024/01/25 05:18:16;;;;;;;0.10;0.10;;;;;;;34.22;21.78;100610.31;7389591;19;20029;-87
2024/01/25 05:20:42;;;;;;;0.40;0.40;;;;;;;34.63;21.69;100598.47;7391148;19;20015;-87
2024/01/25 05:23:08;;;;;;;0.70;0.70;;;;;;;34.79;21.61;100602.34;7391459;19;20034;-87
2024/01/25 05:25:35;;;;;;;0.57;0.22;;;;;;;34.80;21.68;100595.19;7389822;19;20081;-87
2024/01/25 05:28:01;;;;;;;0.15;0.15;;;;;;;35.04;21.95;100599.63;7387492;19;20021;-87
2024/01/25 05:30:27;;;;;;;0.65;0.65;;;;;;;35.08;21.55;100596.97;7392581;19;20035;-87
2024/01/25 05:32:54;;;;;;;0.80;0.45;;;;;;;34.92;21.45;100590.13;7387996;19;20019;-87
2024/01/25 05:35:20;;;;;;;17.58;0.73;;;;;;;34.88;21.68;100589.91;7387472;19;20483;-87
2024/01/25 05:37:46;;;;;;;3.40;0.30;;;;;;;34.84;21.47;100580.97;7393473;19;20015;-88
2024/01/25 05:40:12;;;;;;;0.45;0.45;;;;;;;34.85;22.11;100588.25;7388759;19;20066;-87
2024/01/25 05:42:40;;;;;;;1.27;1.17;;;;;;;34.73;21.62;100584.63;7391125;19;20011;-87
2024/01/25 05:45:07;;;;;;;6.80;1.17;;;;;;;34.74;22.02;100577.44;7394064;19;20609;-87
2024/01/25 05:47:34;;;;;;;3.60;0.63;;;;;;;34.68;21.94;100568.38;7395940;19;20039;-87
2024/01/25 05:50:00;;;;;;;13.50;0.68;;;;;;;34.76;21.93;100563.09;7396785;19;20031;-87
2024/01/25 05:52:27;;;;;;;5.70;1.05;;;;;;;34.72;21.66;100565.72;7396624;19;20022;-87
2024/01/25 05:54:53;;;;;;;0.55;0.50;;;;;;;35.22;21.74;100565.19;7396741;19;20033;-87
2024/01/25 05:57:20;;;;;;;0.20;0.20;;;;;;;35.05;21.54;100575.03;7401537;19;20014;-87
2024/01/25 05:59:46;;;;;;;1.77;1.27;;;;;;;34.95;21.78;100563.59;7397155;19;20014;-87
2024/01/25 06:02:13;;;;;;;9.32;0.88;;;;;;;34.81;22.01;100573.53;7395770;19;20019;-87
2024/01/25 06:04:39;;;;;;;0.20;0.10;;;;;;;34.65;22.04;100566.75;7394653;19;20054;-87
2024/01/25 06:07:06;;;;;;;1.67;0.93;;;;;;;34.54;22.25;100573.28;7394571;19;20015;-87
2024/01/25 06:09:32;;;;;;;1.88;0.60;;;;;;;34.52;21.82;100576.81;7394670;19;20025;-88
2024/01/25 06:11:58;;;;;;;2.35;1.35;;;;;;;34.64;21.87;100573.91;7394144;19;20010;-87
2024/01/25 06:14:24;;;;;;;1.15;0.98;;;;;;;34.28;22.38;100578.88;7393675;19;20047;-88
2024/01/25 06:16:50;;;;;;;0.82;0.70;;;;;;;33.96;22.48;100567.34;7395706;19;20026;-87
2024/01/25 06:19:16;;;;;;;9.75;1.88;;;;;;;33.99;22.53;100554.53;7395804;19;20042;-88
2024/01/25 06:21:42;;;;;;;4.35;1.08;;;;;;;33.77;23.12;100548.06;7397814;19;20010;-88
2024/01/25 06:24:08;;;;;;;2.08;1.50;;;;;;;33.64;22.75;100548.63;7396337;19;20043;-88
2024/01/25 06:26:34;;;;;;;0.47;0.47;;;;;;;33.89;22.72;100537.31;7395953;19;20077;-90
2024/01/25 06:29:01;;;;;;;0.50;0.50;;;;;;;34.09;22.62;100532.09;7397846;19;20045;-87
2024/01/25 06:31:27;;;;;;;0.75;0.68;;;;;;;34.26;22.64;100534.63;7392641;19;20030;-90
2024/01/25 06:33:53;;;;;;;3.78;1.70;;;;;;;34.08;23.10;100528.44;7391270;19;20089;-88
2024/01/25 06:36:20;;;;;;;3.33;0.88;;;;;;;33.98;23.15;100513.28;7394935;19;20047;-92
2024/01/25 06:38:46;;;;;;;2.88;1.30;;;;;;;34.00;22.97;100516.31;7397781;19;20137;-88
2024/01/25 06:41:12;;;;;;;2.55;0.98;;;;;;;34.29;22.52;100501.53;7397724;19;20014;-87
2024/01/25 06:43:39;;;;;;;3.13;0.75;;;;;;;33.94;22.35;100509.41;7398840;19;20025;-88
2024/01/25 06:46:06;;;;;;;7.65;4.03;;;;;;;33.27;23.51;100516.53;7392348;19;20082;-88
2024/01/25 06:48:33;;;;;;;2.38;1.08;;;;;;;33.56;23.45;100505.53;7397988;19;20013;-88
2024/01/25 06:51:00;;;;;;;2.17;1.15;;;;;;;33.71;23.46;100507.19;7393901;19;20015;-88
2024/01/25 06:53:28;;;;;;;3.15;2.17;;;;;;;33.84;23.54;100500.06;7395479;19;20014;-88
2024/01/25 06:55:54;;;;;;;9.60;2.30;;;;;;;33.96;23.48;100501.59;7397440;19;20018;-87
2024/01/25 06:58:20;;;;;;;2.17;1.00;;;;;;;33.98;23.40;100495.94;7396688;19;20014;-87
2024/01/25 07:00:46;;;;;;;14.05;1.88;;;;;;;33.97;23.54;100485.78;7399067;19;20010;-87
2024/01/25 07:03:13;;;;;;;1.08;0.85;;;;;;;34.32;23.59;100492.38;7394551;19;20020;-87
2024/01/25 07:05:39;;;;;;;0.88;0.80;;;;;;;34.51;23.39;100493.53;7395171;19;20073;-87
2024/01/25 07:08:05;;;;;;;3.13;1.55;;;;;;;34.09;23.47;100486.56;7391455;19;20011;-87
2024/01/25 07:10:31;;;;;;;1.58;1.48;;;;;;;33.72;23.81;100476.19;7395573;19;20026;-88
2024/01/25 07:12:57;;;;;;;4.45;1.23;;;;;;;33.66;23.75;100473.63;7392163;19;20081;-87
2024/01/25 07:15:23;;;;;;;6.45;2.40;;;;;;;33.68;24.08;100473.75;7390379;19;20516;-87
2024/01/25 07:17:50;;;;;;;3.10;0.77;;;;;;;33.68;24.18;100476.66;7394855;19;20015;-87
2024/01/25 07:20:16;;;;;;;8.95;1.95;;;;;;;33.51;24.01;100474.84;7394942;19;20018;-87
2024/01/25 07:22:42;;;;;;;9.77;1.20;;;;;;;33.58;23.98;100465.22;7394772;19;20022;-87
2024/01/25 07:25:08;;;;;;;0.60;0.55;;;;;;;33.47;24.19;100476.69;7391182;19;20014;-86
2024/01/25 07:27:35;;;;;;;4.93;1.45;;;;;;;33.40;24.37;100466.88;7391348;19;20089;-87
2024/01/25 07:30:02;;;;;;;0.28;0.28;;;;;;;33.62;24.31;100470.50;7392511;19;20020;-87
2024/01/25 07:32:28;;;;;;;1.85;1.05;;;;;;;33.61;24.11;100469.00;7394984;19;20023;-87
2024/01/25 07:34:54;;;;;;;2.22;1.25;;;;;;;33.72;24.16;100462.50;7389721;19;20045;-87
2024/01/25 07:37:21;;;;;;;1.85;0.85;;;;;;;33.70;24.74;100452.94;7394786;19;20023;-87
2024/01/25 07:39:47;;;;;;;3.40;1.00;;;;;;;33.76;24.17;100459.84;7392365;19;20118;-86
2024/01/25 07:42:13;;;;;;;1.58;0.80;;;;;;;33.69;24.49;100457.94;7391077;19;20564;-87
2024/01/25 07:44:39;;;;;;;1.77;0.98;;;;;;;33.58;24.71;100450.00;7391333;19;20014;-87
2024/01/25 07:47:05;;;;;;;3.55;1.20;;;;;;;33.82;24.54;100457.34;7393727;19;20015;-87
2024/01/25 07:49:31;;;;;;;0.98;0.77;;;;;;;34.18;24.12;100461.81;7390029;19;20106;-87
2024/01/25 07:51:57;;;;;;;3.20;1.00;;;;;;;34.12;24.39;100444.84;7391567;19;20033;-87
2024/01/25 07:54:24;;;;;;;12.30;1.52;;;;;;;34.68;23.94;100449.72;7394285;19;20033;-85
2024/01/25 07:56:50;;;;;;;3.13;0.93;;;;;;;34.52;24.11;100454.53;7394466;19;20017;-87
2024/01/25 07:59:16;;;;;;;1.13;0.73;;;;;;;34.04;24.29;100450.13;7392823;19;20357;-87
2024/01/25 08:01:42;;;;;;;1.73;0.98;;;;;;;34.47;24.11;100446.97;7393017;19;20023;-86
2024/01/25 08:04:08;;;;;;;0.60;0.60;;;;;;;34.90;23.75;100437.34;7392037;19;20027;-86
2024/01/25 08:06:34;;;;;;;1.23;0.55;;;;;;;35.33;23.75;100434.78;7386845;19;20026;-86
2024/01/25 08:09:01;;;;;;;2.35;1.60;;;;;;;35.22;23.41;100435.59;7392318;19;20019;-86
2024/01/25 08:11:27;;;;;;;9.40;1.02;;;;;;;35.49;23.36;100424.16;7390733;19;20052;-86
2024/01/25 08:13:53;;;;;;;1.92;0.52;;;;;;;35.18;23.59;100420.88;7391017;19;20023;-86
2024/01/25 08:16:20;;;;;;;4.65;1.13;;;;;;;34.09;24.35;100414.28;7390647;19;20014;-85
2024/01/25 08:18:48;;;;;;;7.30;0.93;;;;;;;34.24;24.67;100413.78;7392619;19;20023;-86
2024/01/25 08:21:14;;;;;;;0.50;0.43;;;;;;;34.48;24.26;100411.59;7392026;19;20026;-86
2024/01/25 08:23:41;;;;;;;1.05;0.63;;;;;;;34.74;24.09;100424.06;7390204;19;20018;-86
2024/01/25 08:26:12;;;;;;;1.55;1.38;;;;;;;35.06;23.56;100415.13;7390890;19;20015;-86
2024/01/25 08:28:39;;;;;;;3.90;1.83;;;;;;;34.98;24.14;100408.09;7394506;19;20010;-86
2024/01/25 08:31:06;;;;;;;2.30;1.42;;;;;;;34.86;24.13;100401.59;7390143;19;20014;-86
2024/01/25 08:33:33;;;;;;;0.40;0.32;;;;;;;34.97;24.39;100413.16;7389329;19;20014;-86
2024/01/25 08:35:59;;;;;;;2.45;1.15;;;;;;;35.18;24.21;100406.41;7395172;19;20018;-86
2024/01/25 08:38:25;;;;;;;6.90;1.27;;;;;;;34.96;24.07;100410.88;7395242;19;20015;-86
2024/01/25 08:40:51;;;;;;;28.88;1.38;;;;;;;35.08;24.37;100400.03;7394089;19;20022;-86
2024/01/25 08:43:17;;;;;;;0.75;0.75;;;;;;;35.06;24.18;100403.56;7392940;19;19999;-87
2024/01/25 08:45:43;;;;;;;8.95;2.05;;;;;;;35.28;23.95;100400.44;7393953;19;20014;-86
2024/01/25 08:48:10;;;;;;;4.05;1.42;;;;;;;35.38;24.03;100395.97;7393505;19;20028;-86
2024/01/25 08:50:36;;;;;;;1.40;1.00;;;;;;;35.45;23.98;100394.19;7391074;19;20018;-86
2024/01/25 08:53:03;;;;;;;5.72;1.45;;;;;;;35.41;23.90;100399.75;7391388;19;20018;-86
2024/01/25 08:55:29;;;;;;;6.80;1.70;;;;;;;35.41;23.79;100394.69;7392079;19;20011;-86
2024/01/25 08:57:55;;;;;;;4.13;1.02;;;;;;;35.40;24.06;100389.53;7390746;19;20007;-89
2024/01/25 09:00:21;;;;;;;11.23;1.08;;;;;;;35.40;23.81;100387.41;7395297;19;20700;-87
2024/01/25 09:02:47;;;;;;;6.93;1.50;;;;;;;35.36;24.01;100378.47;7391369;19;20078;-87
2024/01/25 09:05:14;;;;;;;0.80;0.73;;;;;;;35.31;23.84;100373.09;7388186;19;20019;-86
2024/01/25 09:07:41;;;;;;;3.13;1.45;;;;;;;35.43;23.89;100365.09;7386928;19;20035;-86
2024/01/25 09:10:08;;;;;;;1.80;0.77;;;;;;;35.53;24.06;100363.53;7386802;19;20046;-86
2024/01/25 09:12:35;;;;;;;5.55;1.63;;;;;;;35.48;23.65;100367.59;7392227;19;20089;-86
2024/01/25 09:15:02;;;;;;;4.25;2.33;;;;;;;35.32;23.93;100377.50;7388765;19;20492;-86
2024/01/25 09:17:28;;;;;;;3.92;1.77;;;;;;;35.39;24.45;100380.09;7393863;19;20397;-86
2024/01/25 09:19:54;;;;;;;0.55;0.55;;;;;;;35.50;24.15;100373.50;7397620;19;20022;-86
2024/01/25 09:22:21;;;;;;;11.85;1.52;;;;;;;35.50;23.99;100370.59;7397028;19;20018;-85
2024/01/25 09:24:47;;;;;;;6.32;2.03;;;;;;;35.56;24.10;100376.72;7398405;19;20010;-85
2024/01/25 09:27:14;;;;;;;21.17;1.30;;;;;;;35.81;23.91;100381.72;7398020;19;20010;-85
2024/01/25 09:29:41;;;;;;;1.63;1.35;;;;;;;35.72;23.82;100373.97;7395191;19;20037;-86
2024/01/25 09:32:08;;;;;;;7.13;1.27;;;;;;;35.79;24.23;100379.47;7395510;19;20014;-86
2024/01/25 09:34:38;;;;;;;1.35;1.17;;;;;;;35.93;24.08;100375.84;7394165;19;20021;-85
2024/01/25 09:37:05;;;;;;;1.90;1.25;;;;;;;36.29;23.68;100383.59;7397546;19;20011;-85
2024/01/25 09:39:32;;;;;;;7.38;1.48;;;;;;;36.48;23.98;100386.84;7401338;19;20513;-86
2024/01/25 09:41:58;;;;;;;12.27;1.70;;;;;;;36.60;23.67;100375.09;7394906;19;20015;-86
2024/01/25 09:44:24;;;;;;;1.80;1.17;;;;;;;36.52;24.10;100377.56;7398419;19;20030;-86
2024/01/25 09:46:51;;;;;;;4.65;2.17;;;;;;;36.39;23.88;100384.13;7394715;19;20029;-85
2024/01/25 09:49:17;;;;;;;2.28;1.00;;;;;;;36.31;24.09;100380.81;7394273;19;20019;-85
2024/01/25 09:51:44;;;;;;;4.28;0.85;;;;;;;36.35;24.13;100372.31;7394275;19;20019;-86
2024/01/25 09:54:11;;;;;;;3.92;1.40;;;;;;;36.00;24.35;100383.47;7393366;19;20026;-85
2024/01/25 09:56:41;;;;;;;4.40;1.15;;;;;;;36.42;24.26;100397.34;7398875;19;20010;-85
2024/01/25 09:59:08;;;;;;;7.53;1.77;;;;;;;36.41;23.85;100381.31;7396239;19;20480;-85
2024/01/25 10:01:35;;;;;;;3.78;1.08;;;;;;;36.77;23.75;100374.53;7394962;19;20015;-85
2024/01/25 10:04:01;;;;;;;1.77;1.55;;;;;;;36.50;24.12;100371.66;7398207;19;20364;-85
2024/01/25 10:06:27;;;;;;;8.02;2.40;;;;;;;36.65;23.90;100371.00;7392964;19;20022;-86
2024/01/25 10:08:53;;;;;;;3.20;0.77;;;;;;;35.31;24.97;100359.34;7400341;19;20025;-85
2024/01/25 10:11:20;;;;;;;7.55;2.75;;;;;;;34.99;25.40;100360.38;7396654;19;20037;-86
2024/01/25 10:13:50;;;;;;;7.82;2.50;;;;;;;34.91;25.79;100351.97;7396544;19;20361;-85
2024/01/25 10:16:18;;;;;;;6.57;1.88;;;;;;;35.76;24.90;100345.97;7395860;19;20480;-86
2024/01/25 10:18:46;;;;;;;2.33;1.05;;;;;;;36.17;25.15;100348.16;7397293;19;20647;-85
2024/01/25 10:21:15;;;;;;;6.30;1.65;;;;;;;37.10;24.70;100342.78;7397108;19;20015;-85
2024/01/25 10:23:45;;;;;;;9.85;3.22;;;;;;;35.86;25.19;100345.00;7395838;19;20015;-85
2024/01/25 10:26:11;;;;;;;9.38;2.42;;;;;;;36.81;24.90;100344.94;7400323;19;20021;-86
2024/01/25 10:28:37;;;;;;;6.20;2.92;;;;;;;37.38;24.72;100342.69;7393870;19;20121;-86
2024/01/25 10:31:07;;;;;;;4.88;1.63;;;;;;;37.46;24.68;100343.06;7398557;19;20033;-86
2024/01/25 10:33:34;;;;;;;2.80;1.77;;;;;;;37.64;24.19;100329.41;7394192;19;20381;-86
2024/01/25 10:36:03;;;;;;;1.48;0.82;;;;;;;37.58;24.56;100329.09;7394219;19;20477;-85
2024/01/25 10:38:31;;;;;;;1.48;0.68;;;;;;;37.60;24.40;100318.31;7395319;19;20015;-85
2024/01/25 10:41:03;;;;;;;5.07;1.33;;;;;;;37.16;24.90;100334.41;7392471;19;20022;-85
2024/01/25 10:43:32;;;;;;;2.33;0.57;;;;;;;37.20;24.74;100325.88;7396760;19;20049;-88
2024/01/25 10:45:59;;;;;;;4.57;1.20;;;;;;;37.11;25.23;100329.78;7394251;19;20011;-88
2024/01/25 10:48:26;;;;;;;5.10;1.23;;;;;;;36.69;25.05;100342.16;7397995;19;20043;-88
2024/01/25 10:50:54;;;;;;;2.03;0.20;;;;;;;36.94;25.35;100339.13;7397566;19;20030;-88
2024/01/25 10:53:21;;;;;;;1.45;1.20;;;;;;;35.68;25.84;100328.13;7393894;19;20089;-85
2024/01/25 10:55:48;;;;;;;11.95;3.00;;;;;;;35.41;26.33;100333.09;7393488;19;20018;-85
2024/01/25 10:58:17;;;;;;;2.42;1.00;;;;;;;35.74;26.13;100319.75;7392716;19;20049;-85
2024/01/25 11:00:58;;;;;;;2.15;0.90;;;;;;;35.09;26.65;100326.25;7394839;19;20025;-85
2024/01/25 11:03:28;;;;;;;4.25;1.10;;;;;;;35.04;26.92;100321.63;7394447;19;20018;-84
2024/01/25 11:05:55;;;;;;;2.40;0.90;;;;;;;35.02;26.71;100324.41;7395792;19;20082;-85
2024/01/25 11:08:24;;;;;;;0.13;0.13;;;;;;;35.81;26.23;100306.34;7392376;19;20014;-85
2024/01/25 11:10:51;;;;;;;1.83;0.63;;;;;;;36.33;25.71;100297.53;7392006;19;20011;-85
2024/01/25 11:13:25;;;;;;;1.08;0.93;;;;;;;35.80;26.47;100305.59;7393454;19;20558;-85
2024/01/25 11:15:52;;;;;;;1.50;0.77;;;;;;;35.70;26.72;100290.56;7392789;19;20484;-84
2024/01/25 11:18:18;;;;;;;0.77;0.70;;;;;;;35.62;26.57;100287.25;7398034;19;20563;-88
2024/01/25 11:20:47;;;;;;;1.83;0.40;;;;;;;35.19;27.04;100289.19;7392447;19;20018;-85